createdAt,value
2018-03-07T00:01:08.487Z,30.02
2018-03-07T00:03:34.931Z,30.98
2018-03-07T00:06:01.405Z,27.65
2018-03-07T00:08:28.514Z,30.77
2018-03-07T00:13:27.351Z,21.50
2018-03-07T00:15:54.483Z,24.65
2018-03-07T00:18:20.869Z,25.67
2018-03-07T00:20:47.272Z,18.05
2018-03-07T00:23:13.671Z,23.15
2018-03-07T00:25:40.040Z,19.25
2018-03-07T00:28:06.402Z,18.92
2018-03-07T00:30:32.821Z,17.05
2018-03-07T00:32:59.227Z,23.17
2018-03-07T00:35:25.654Z,28.92
2018-03-07T00:37:52.810Z,25.95
2018-03-07T00:40:19.183Z,19.50
2018-03-07T00:42:45.659Z,19.65
2018-03-07T00:45:12.846Z,25.62
2018-03-07T00:47:39.256Z,25.67
2018-03-07T00:50:05.623Z,19.35
2018-03-07T00:52:32.052Z,24.08
2018-03-07T00:54:58.409Z,27.05
2018-03-07T00:57:24.846Z,21.12
2018-03-07T00:59:51.284Z,22.30
2018-03-07T01:02:17.761Z,19.73
2018-03-07T01:04:44.197Z,20.40
2018-03-07T01:07:10.628Z,21.83
2018-03-07T01:09:36.973Z,14.68
2018-03-07T01:12:03.419Z,16.25
2018-03-07T01:14:29.830Z,20.92
2018-03-07T01:16:56.223Z,23.75
2018-03-07T01:19:22.644Z,22.70
2018-03-07T01:21:49.026Z,24.73
2018-03-07T01:24:15.491Z,18.65
2018-03-07T01:26:41.988Z,18.70
2018-03-07T01:29:08.478Z,18.10
2018-03-07T01:31:35.583Z,16.48
2018-03-07T01:34:02.060Z,20.55
2018-03-07T01:36:29.212Z,25.33
2018-03-07T01:38:55.605Z,23.48
2018-03-07T01:41:22.032Z,21.40
2018-03-07T01:43:48.470Z,17.75
2018-03-07T01:46:14.902Z,21.33
2018-03-07T01:48:41.303Z,19.55
2018-03-07T01:51:07.753Z,20.90
2018-03-07T01:53:34.160Z,15.65
2018-03-07T01:56:00.516Z,15.85
2018-03-07T01:58:26.979Z,18.87
2018-03-07T02:00:53.357Z,14.23
2018-03-07T02:03:19.758Z,20.05
2018-03-07T02:05:46.118Z,16.80
2018-03-07T02:08:12.550Z,12.65
2018-03-07T02:10:38.925Z,13.80
2018-03-07T02:13:06.033Z,18.23
2018-03-07T02:15:32.422Z,13.07
2018-03-07T02:17:58.816Z,15.05
2018-03-07T02:20:25.191Z,17.95
2018-03-07T02:22:51.603Z,12.48
2018-03-07T02:25:18.715Z,14.10
2018-03-07T02:27:45.085Z,16.12
2018-03-07T02:30:11.500Z,12.25
2018-03-07T02:32:37.881Z,12.02
2018-03-07T02:35:04.264Z,14.10
2018-03-07T02:37:31.436Z,13.82
2018-03-07T02:39:57.802Z,15.75
2018-03-07T02:42:24.206Z,14.98
2018-03-07T02:44:50.582Z,16.83
2018-03-07T02:47:16.989Z,15.45
2018-03-07T02:49:43.378Z,13.62
2018-03-07T02:52:10.493Z,14.68
2018-03-07T02:54:36.932Z,16.83
2018-03-07T02:57:03.315Z,14.20
2018-03-07T02:59:29.738Z,14.48
2018-03-07T03:01:56.121Z,11.70
2018-03-07T03:04:22.534Z,12.73
2018-03-07T03:06:48.934Z,13.18
2018-03-07T03:09:15.396Z,11.40
2018-03-07T03:11:41.806Z,14.98
2018-03-07T03:14:08.245Z,17.30
2018-03-07T03:16:34.724Z,15.50
2018-03-07T03:19:01.858Z,16.05
2018-03-07T03:21:28.305Z,15.13
2018-03-07T03:23:55.458Z,13.30
2018-03-07T03:26:21.909Z,18.10
2018-03-07T03:28:49.008Z,13.73
2018-03-07T03:31:15.465Z,15.00
2018-03-07T03:33:42.601Z,15.10
2018-03-07T03:36:08.976Z,13.35
2018-03-07T03:38:35.382Z,14.38
2018-03-07T03:41:02.525Z,14.02
2018-03-07T03:43:28.970Z,14.60
2018-03-07T03:45:56.089Z,15.48
2018-03-07T03:48:22.505Z,15.63
2018-03-07T03:50:48.869Z,13.15
2018-03-07T03:53:15.976Z,14.05
2018-03-07T03:55:42.365Z,15.65
2018-03-07T03:58:08.780Z,17.52
2018-03-07T04:00:35.991Z,20.00
2018-03-07T04:03:02.387Z,16.45
2018-03-07T04:05:28.777Z,11.88
2018-03-07T04:07:55.229Z,16.17
2018-03-07T04:10:21.683Z,15.60
2018-03-07T04:12:48.081Z,12.82
2018-03-07T04:15:14.507Z,18.40
2018-03-07T04:17:40.887Z,17.23
2018-03-07T04:20:07.325Z,16.50
2018-03-07T04:22:33.746Z,10.63
2018-03-07T04:25:00.118Z,15.85
2018-03-07T04:27:26.528Z,18.08
2018-03-07T04:29:52.910Z,15.27
2018-03-07T04:32:20.022Z,12.10
2018-03-07T04:34:46.374Z,13.85
2018-03-07T04:37:13.522Z,16.05
2018-03-07T04:39:39.896Z,18.10
2018-03-07T04:42:07.051Z,14.87
2018-03-07T04:44:33.434Z,14.13
2018-03-07T04:46:59.795Z,17.42
2018-03-07T04:49:26.213Z,15.90
2018-03-07T04:51:52.564Z,16.23
2018-03-07T04:54:18.931Z,14.50
2018-03-07T04:56:45.326Z,11.80
2018-03-07T04:59:11.686Z,13.85
2018-03-07T05:01:38.145Z,18.48
2018-03-07T05:04:04.582Z,11.30
2018-03-07T05:06:31.714Z,13.80
2018-03-07T05:08:58.119Z,16.17
2018-03-07T05:11:24.551Z,13.23
2018-03-07T05:13:50.925Z,13.82
2018-03-07T05:16:17.318Z,16.35
2018-03-07T05:18:43.800Z,18.05
2018-03-07T05:21:10.118Z,14.70
2018-03-07T05:23:37.272Z,12.20
2018-03-07T05:26:04.386Z,14.07
2018-03-07T05:28:30.777Z,11.45
2018-03-07T05:30:57.189Z,20.48
2018-03-07T05:33:23.538Z,16.35
2018-03-07T05:35:49.936Z,9.95
2018-03-07T05:38:16.370Z,16.20
2018-03-07T05:40:43.489Z,14.13
2018-03-07T05:43:09.996Z,13.25
2018-03-07T05:45:36.376Z,13.27
2018-03-07T05:48:03.537Z,12.75
2018-03-07T05:50:30.655Z,14.30
2018-03-07T05:52:56.989Z,14.60
2018-03-07T05:55:23.389Z,12.25
2018-03-07T05:57:49.752Z,14.48
2018-03-07T06:00:16.185Z,13.38
2018-03-07T06:02:42.533Z,13.85
2018-03-07T06:05:09.653Z,15.07
2018-03-07T06:07:36.037Z,17.87
2018-03-07T06:10:02.516Z,18.98
2018-03-07T06:12:28.912Z,14.82
2018-03-07T06:14:55.279Z,16.58
2018-03-07T06:17:21.666Z,14.18
2018-03-07T06:19:48.034Z,14.63
2018-03-07T06:22:14.428Z,17.55
2018-03-07T06:24:40.806Z,18.08
2018-03-07T06:27:07.168Z,14.75
2018-03-07T06:29:34.356Z,11.15
2018-03-07T06:32:00.726Z,20.98
2018-03-07T06:34:27.899Z,18.35
2018-03-07T06:36:54.335Z,13.00
2018-03-07T06:39:21.979Z,16.52
2018-03-07T06:41:49.100Z,15.98
2018-03-07T06:44:15.518Z,19.70
2018-03-07T06:46:41.913Z,14.52
2018-03-07T06:49:08.302Z,10.70
2018-03-07T06:51:34.693Z,12.50
2018-03-07T06:54:01.098Z,12.75
2018-03-07T06:56:27.501Z,18.15
2018-03-07T06:58:53.914Z,15.50
2018-03-07T07:01:20.309Z,14.45
2018-03-07T07:03:46.727Z,11.85
2018-03-07T07:06:13.167Z,9.90
2018-03-07T07:08:39.572Z,16.62
2018-03-07T07:11:06.690Z,9.07
2018-03-07T07:13:33.089Z,12.88
2018-03-07T07:15:59.478Z,9.50
2018-03-07T07:18:26.624Z,9.30
2018-03-07T07:20:53.736Z,13.90
2018-03-07T07:23:20.181Z,9.02
2018-03-07T07:25:46.592Z,11.93
2018-03-07T07:28:13.028Z,12.85
2018-03-07T07:30:39.398Z,8.50
2018-03-07T07:33:06.498Z,8.75
2018-03-07T07:35:32.960Z,8.80
2018-03-07T07:37:59.344Z,12.60
2018-03-07T07:40:25.794Z,7.82
2018-03-07T07:42:52.217Z,8.13
2018-03-07T07:45:18.664Z,10.07
2018-03-07T07:47:45.037Z,9.57
2018-03-07T07:50:11.474Z,13.75
2018-03-07T07:52:38.625Z,10.15
2018-03-07T07:55:05.009Z,6.97
2018-03-07T07:57:31.361Z,6.72
2018-03-07T07:59:58.507Z,11.77
2018-03-07T08:02:25.627Z,6.95
2018-03-07T08:04:52.729Z,8.07
2018-03-07T08:07:19.150Z,7.28
2018-03-07T08:09:45.561Z,5.70
2018-03-07T08:12:11.908Z,6.75
2018-03-07T08:14:38.303Z,5.95
2018-03-07T08:17:04.655Z,6.20
2018-03-07T08:19:31.061Z,5.28
2018-03-07T08:21:57.442Z,2.53
2018-03-07T08:24:23.825Z,1.90
2018-03-07T08:26:50.160Z,3.20
2018-03-07T08:29:16.591Z,2.75
2018-03-07T08:31:42.939Z,5.22
2018-03-07T08:34:09.293Z,2.25
2018-03-07T08:36:35.718Z,5.32
2018-03-07T08:39:02.195Z,7.47
2018-03-07T08:41:28.585Z,1.70
2018-03-07T08:43:55.720Z,3.90
2018-03-07T08:46:22.847Z,2.97
2018-03-07T08:48:49.302Z,4.62
2018-03-07T08:51:15.741Z,2.58
2018-03-07T08:53:43.773Z,3.80
2018-03-07T08:56:10.205Z,4.00
2018-03-07T08:58:36.584Z,2.53
2018-03-07T09:01:03.018Z,3.65
2018-03-07T09:03:29.397Z,2.15
2018-03-07T09:05:55.818Z,4.57
2018-03-07T09:08:22.250Z,1.75
2018-03-07T09:10:48.653Z,7.47
2018-03-07T09:13:15.013Z,6.32
2018-03-07T09:15:41.457Z,3.97
2018-03-07T09:18:07.874Z,2.58
2018-03-07T09:20:34.224Z,1.83
2018-03-07T09:23:00.635Z,1.58
2018-03-07T09:25:27.021Z,1.05
2018-03-07T09:27:53.402Z,1.45
2018-03-07T09:30:19.786Z,0.90
2018-03-07T09:32:46.169Z,2.15
2018-03-07T09:35:12.590Z,0.80
2018-03-07T09:37:39.790Z,1.27
2018-03-07T09:40:06.168Z,1.30
2018-03-07T09:42:32.567Z,1.85
2018-03-07T09:44:58.924Z,1.80
2018-03-07T09:47:25.338Z,1.10
2018-03-07T09:49:51.712Z,0.90
2018-03-07T09:52:18.096Z,0.80
2018-03-07T09:54:44.474Z,0.95
2018-03-07T09:57:10.862Z,1.30
2018-03-07T09:59:37.252Z,3.05
2018-03-07T10:02:04.473Z,1.20
2018-03-07T10:04:30.842Z,1.83
2018-03-07T10:06:57.255Z,2.30
2018-03-07T10:09:24.422Z,1.05
2018-03-07T10:11:50.831Z,2.72
2018-03-07T10:14:17.982Z,0.80
2018-03-07T10:16:45.134Z,1.75
2018-03-07T10:19:11.494Z,2.97
2018-03-07T10:21:37.899Z,1.02
2018-03-07T10:24:05.011Z,2.78
2018-03-07T10:26:31.463Z,0.90
2018-03-07T10:28:57.802Z,2.65
2018-03-07T10:31:24.929Z,2.00
2018-03-07T10:33:51.356Z,1.05
2018-03-07T10:36:17.710Z,3.92
2018-03-07T10:38:44.899Z,2.35
2018-03-07T10:41:11.241Z,1.95
2018-03-07T10:43:37.713Z,1.35
2018-03-07T10:46:04.099Z,1.20
2018-03-07T10:48:30.518Z,2.00
2018-03-07T10:50:56.920Z,0.88
2018-03-07T10:53:24.090Z,1.52
2018-03-07T10:55:50.484Z,1.65
2018-03-07T10:58:16.870Z,2.28
2018-03-07T11:00:43.310Z,0.93
2018-03-07T11:03:09.710Z,0.77
2018-03-07T11:05:36.141Z,0.82
2018-03-07T11:08:02.575Z,0.68
2018-03-07T11:10:29.039Z,0.90
2018-03-07T11:12:55.425Z,1.95
2018-03-07T11:15:21.832Z,0.50
2018-03-07T11:17:48.987Z,0.60
2018-03-07T11:20:15.396Z,0.70
2018-03-07T11:22:41.805Z,0.60
2018-03-07T11:25:08.275Z,4.62
2018-03-07T11:27:34.661Z,0.73
2018-03-07T11:30:01.063Z,3.45
2018-03-07T11:32:28.204Z,6.93
2018-03-07T11:34:55.310Z,0.95
2018-03-07T11:37:21.700Z,4.53
2018-03-07T11:39:48.118Z,0.70
2018-03-07T11:42:14.594Z,0.88
2018-03-07T11:44:40.991Z,1.42
2018-03-07T11:47:07.419Z,0.85
2018-03-07T11:49:33.841Z,1.00
2018-03-07T11:52:00.994Z,1.95
2018-03-07T11:54:28.139Z,0.80
2018-03-07T11:56:55.305Z,1.35
2018-03-07T11:59:21.667Z,2.00
2018-03-07T12:01:48.075Z,0.95
2018-03-07T12:04:14.494Z,2.80
2018-03-07T12:06:40.889Z,0.85
2018-03-07T12:09:07.286Z,3.53
2018-03-07T12:11:33.691Z,7.00
2018-03-07T12:14:00.078Z,0.77
2018-03-07T12:16:26.477Z,1.70
2018-03-07T12:18:52.909Z,5.57
2018-03-07T12:21:19.308Z,1.95
2018-03-07T12:23:45.896Z,1.73
2018-03-07T12:26:12.338Z,1.00
2018-03-07T12:28:39.514Z,1.95
2018-03-07T12:31:06.628Z,2.72
2018-03-07T12:33:33.050Z,5.07
2018-03-07T12:35:59.454Z,1.00
2018-03-07T12:38:25.837Z,0.95
2018-03-07T12:40:52.522Z,1.20
2018-03-07T12:43:18.945Z,0.82
2018-03-07T12:45:45.361Z,0.62
2018-03-07T12:48:12.484Z,0.70
2018-03-07T12:50:39.677Z,1.20
2018-03-07T12:53:06.049Z,2.25
2018-03-07T12:55:32.431Z,1.40
2018-03-07T12:57:58.834Z,1.58
2018-03-07T13:00:25.972Z,0.68
2018-03-07T13:02:53.158Z,0.70
2018-03-07T13:05:19.553Z,1.73
2018-03-07T13:07:46.010Z,1.30
2018-03-07T13:10:12.400Z,6.43
2018-03-07T13:12:38.779Z,1.58
2018-03-07T13:15:05.192Z,1.00
2018-03-07T13:17:32.286Z,1.25
2018-03-07T13:19:58.705Z,0.80
2018-03-07T13:22:32.086Z,0.90
2018-03-07T13:24:58.499Z,0.98
2018-03-07T13:27:24.890Z,1.05
2018-03-07T13:29:51.990Z,0.77
2018-03-07T13:32:18.420Z,1.50
2018-03-07T13:34:44.805Z,3.90
2018-03-07T13:37:11.206Z,1.40
2018-03-07T13:39:37.576Z,1.00
2018-03-07T13:42:04.032Z,1.77
2018-03-07T13:44:31.159Z,3.30
2018-03-07T13:46:58.987Z,0.77
2018-03-07T13:49:25.386Z,0.80
2018-03-07T13:51:52.544Z,4.30
2018-03-07T13:54:18.939Z,1.50
2018-03-07T13:56:46.137Z,0.90
2018-03-07T13:59:12.523Z,3.37
2018-03-07T14:01:39.647Z,1.50
2018-03-07T14:04:06.110Z,0.85
2018-03-07T14:06:33.226Z,1.05
2018-03-07T14:08:59.658Z,1.60
2018-03-07T14:11:26.101Z,0.90
2018-03-07T14:13:52.540Z,0.82
2018-03-07T14:16:19.757Z,1.83
2018-03-07T14:18:46.162Z,1.15
2018-03-07T14:21:12.545Z,1.08
2018-03-07T14:23:39.022Z,0.80
2018-03-07T14:26:05.524Z,2.35
2018-03-07T14:28:31.905Z,1.33
2018-03-07T14:30:58.280Z,1.42
2018-03-07T14:33:25.429Z,2.25
2018-03-07T14:35:51.829Z,1.45
2018-03-07T14:38:18.222Z,1.27
2018-03-07T14:40:44.598Z,1.02
2018-03-07T14:43:11.076Z,1.40
2018-03-07T14:45:37.502Z,1.20
2018-03-07T14:48:03.995Z,1.65
2018-03-07T14:50:30.390Z,1.62
2018-03-07T14:52:56.752Z,2.05
2018-03-07T14:55:23.161Z,0.70
2018-03-07T14:57:49.520Z,1.50
2018-03-07T15:00:15.943Z,2.65
2018-03-07T15:02:43.272Z,2.90
2018-03-07T15:05:09.729Z,0.73
2018-03-07T15:07:36.857Z,1.25
2018-03-07T15:10:03.333Z,1.67
2018-03-07T15:12:29.827Z,2.22
2018-03-07T15:14:56.221Z,4.07
2018-03-07T15:17:22.632Z,1.42
2018-03-07T15:19:49.768Z,3.40
2018-03-07T15:22:16.991Z,1.12
2018-03-07T15:24:43.350Z,3.25
2018-03-07T15:27:09.739Z,3.72
2018-03-07T15:29:36.150Z,1.30
2018-03-07T15:32:02.769Z,3.80
2018-03-07T15:34:29.908Z,2.80
2018-03-07T15:36:57.077Z,1.92
2018-03-07T15:39:23.515Z,1.95
2018-03-07T15:41:49.941Z,2.83
2018-03-07T15:44:16.472Z,2.22
2018-03-07T15:46:42.849Z,0.60
2018-03-07T15:49:09.281Z,1.20
2018-03-07T15:51:35.693Z,2.60
2018-03-07T15:54:02.092Z,3.35
2018-03-07T15:56:29.270Z,2.58
2018-03-07T15:58:55.747Z,2.47
2018-03-07T16:01:22.199Z,3.15
2018-03-07T16:03:49.364Z,1.10
2018-03-07T16:06:15.744Z,2.12
2018-03-07T16:08:42.186Z,2.17
2018-03-07T16:11:08.545Z,1.85
2018-03-07T16:13:35.721Z,1.25
2018-03-07T16:16:02.115Z,5.18
2018-03-07T16:18:28.493Z,3.08
2018-03-07T16:20:54.946Z,0.95
2018-03-07T16:23:21.331Z,1.60
2018-03-07T16:25:47.781Z,6.75
2018-03-07T16:28:14.245Z,5.50
2018-03-07T16:30:40.707Z,1.05
2018-03-07T16:33:07.076Z,0.80
2018-03-07T16:35:33.484Z,1.05
2018-03-07T16:37:59.936Z,1.60
2018-03-07T16:40:26.403Z,1.85
2018-03-07T16:42:52.807Z,2.92
2018-03-07T16:45:19.223Z,5.97
2018-03-07T16:47:45.629Z,4.12
2018-03-07T16:50:12.039Z,2.55
2018-03-07T16:52:38.461Z,3.05
2018-03-07T16:55:04.888Z,2.72
2018-03-07T16:57:31.284Z,4.18
2018-03-07T16:59:57.762Z,1.30
2018-03-07T17:02:24.263Z,8.13
2018-03-07T17:04:50.656Z,1.83
2018-03-07T17:07:17.086Z,2.60
2018-03-07T17:09:43.535Z,1.48
2018-03-07T17:12:09.929Z,2.62
2018-03-07T17:14:36.412Z,2.25
2018-03-07T17:17:02.813Z,1.35
2018-03-07T17:19:29.229Z,3.25
2018-03-07T17:21:55.656Z,1.62
2018-03-07T17:24:22.039Z,1.95
2018-03-07T17:26:48.530Z,3.80
2018-03-07T17:29:15.657Z,3.42
2018-03-07T17:31:42.653Z,3.37
2018-03-07T17:34:09.252Z,6.47
2018-03-07T17:36:36.362Z,4.43
2018-03-07T17:39:02.934Z,3.85
2018-03-07T17:41:30.112Z,3.28
2018-03-07T17:43:56.595Z,2.55
2018-03-07T17:46:23.030Z,4.80
2018-03-07T17:48:49.430Z,3.03
2018-03-07T17:51:16.025Z,6.18
2018-03-07T17:53:42.470Z,3.37
2018-03-07T17:56:08.904Z,2.03
2018-03-07T17:58:35.330Z,1.00
2018-03-07T18:01:01.758Z,5.25
2018-03-07T18:03:28.152Z,2.30
2018-03-07T18:05:54.610Z,2.08
2018-03-07T18:08:21.740Z,2.05
2018-03-07T18:10:48.175Z,5.20
2018-03-07T18:13:14.618Z,1.60
2018-03-07T18:15:41.176Z,2.83
2018-03-07T18:18:07.592Z,2.85
2018-03-07T18:20:34.736Z,2.45
2018-03-07T18:23:01.974Z,1.27
2018-03-07T18:25:28.436Z,1.10
2018-03-07T18:27:54.879Z,1.77
2018-03-07T18:30:21.321Z,1.27
2018-03-07T18:32:47.754Z,1.15
2018-03-07T18:35:14.155Z,1.12
2018-03-07T18:37:40.625Z,5.97
2018-03-07T18:40:07.078Z,1.00
2018-03-07T18:42:33.525Z,1.87
2018-03-07T18:44:59.983Z,1.85
2018-03-07T18:47:26.396Z,1.10
2018-03-07T18:49:52.814Z,1.15
2018-03-07T18:52:19.328Z,1.02
2018-03-07T18:54:45.747Z,2.28
2018-03-07T18:57:12.211Z,2.45
2018-03-07T18:59:38.626Z,3.20
2018-03-07T19:02:05.071Z,1.85
2018-03-07T19:04:31.437Z,2.67
2018-03-07T19:06:58.605Z,2.25
2018-03-07T19:09:25.071Z,1.45
2018-03-07T19:11:51.520Z,2.55
2018-03-07T19:14:18.043Z,3.70
2018-03-07T19:16:44.450Z,1.77
2018-03-07T19:19:10.931Z,3.17
2018-03-07T19:21:38.101Z,4.53
2018-03-07T19:24:04.524Z,0.85
2018-03-07T19:26:30.931Z,0.90
2018-03-07T19:28:57.407Z,2.28
2018-03-07T19:31:23.905Z,0.95
2018-03-07T19:33:51.089Z,9.38
2018-03-07T19:36:17.640Z,2.20
2018-03-07T19:38:44.133Z,1.48
2018-03-07T19:41:10.621Z,1.73
2018-03-07T19:43:37.073Z,2.30
2018-03-07T19:46:03.544Z,4.95
2018-03-07T19:48:30.037Z,4.62
2018-03-07T19:50:56.554Z,7.22
2018-03-07T19:53:23.029Z,4.60
2018-03-07T19:55:50.361Z,4.05
2018-03-07T19:58:16.809Z,4.57
2018-03-07T20:00:43.982Z,1.77
2018-03-07T20:03:17.336Z,3.28
2018-03-07T20:05:43.757Z,6.43
2018-03-07T20:08:10.219Z,5.18
2018-03-07T20:10:37.392Z,7.97
2018-03-07T20:13:03.848Z,6.68
2018-03-07T20:15:30.286Z,5.50
2018-03-07T20:17:56.667Z,6.53
2018-03-07T20:20:23.117Z,3.42
2018-03-07T20:22:50.301Z,3.42
2018-03-07T20:25:17.653Z,3.10
2018-03-07T20:27:44.070Z,4.18
2018-03-07T20:30:10.567Z,3.70
2018-03-07T20:32:37.009Z,3.42
2018-03-07T20:35:03.483Z,3.97
2018-03-07T20:37:29.935Z,5.45
2018-03-07T20:39:56.373Z,7.80
2018-03-07T20:42:22.897Z,5.62
2018-03-07T20:44:49.439Z,5.55
2018-03-07T20:47:15.920Z,3.40
2018-03-07T20:49:42.358Z,4.07
2018-03-07T20:52:08.789Z,3.67
2018-03-07T20:54:35.262Z,3.25
2018-03-07T20:57:01.746Z,4.62
2018-03-07T20:59:28.156Z,2.42
2018-03-07T21:01:55.365Z,5.35
2018-03-07T21:04:21.855Z,3.72
2018-03-07T21:06:48.377Z,4.47
2018-03-07T21:09:14.889Z,1.95
2018-03-07T21:11:42.079Z,1.65
2018-03-07T21:14:08.575Z,3.22
2018-03-07T21:16:35.877Z,3.10
2018-03-07T21:19:02.366Z,5.37
2018-03-07T21:21:29.553Z,2.50
2018-03-07T21:23:56.013Z,1.98
2018-03-07T21:26:22.558Z,6.37
2018-03-07T21:28:49.051Z,4.85
2018-03-07T21:31:15.490Z,4.30
2018-03-07T21:33:41.936Z,1.83
2018-03-07T21:36:08.348Z,1.70
2018-03-07T21:38:34.729Z,2.50
2018-03-07T21:41:01.948Z,1.87
2018-03-07T21:43:28.525Z,3.28
2018-03-07T21:45:55.736Z,2.35
2018-03-07T21:48:22.995Z,3.15
2018-03-07T21:50:49.472Z,2.00
2018-03-07T21:53:16.013Z,2.78
2018-03-07T21:55:42.503Z,3.17
2018-03-07T21:58:08.955Z,2.47
2018-03-07T22:00:36.121Z,2.50
2018-03-07T22:03:02.740Z,3.30
2018-03-07T22:05:29.284Z,2.30
2018-03-07T22:07:55.728Z,1.50
2018-03-07T22:10:22.155Z,1.95
2018-03-07T22:12:48.614Z,2.50
2018-03-07T22:15:15.081Z,2.60
2018-03-07T22:17:41.569Z,1.85
2018-03-07T22:20:08.014Z,3.50
2018-03-07T22:22:34.499Z,1.42
2018-03-07T22:25:00.918Z,2.05
2018-03-07T22:27:27.338Z,2.72
2018-03-07T22:29:53.771Z,1.62
2018-03-07T22:32:20.226Z,1.23
2018-03-07T22:34:47.393Z,1.90
2018-03-07T22:37:13.826Z,2.17
2018-03-07T22:39:40.325Z,3.60
2018-03-07T22:42:06.752Z,3.30
2018-03-07T22:44:33.929Z,1.60
2018-03-07T22:47:00.319Z,6.22
2018-03-07T22:49:26.807Z,2.20
2018-03-07T22:51:53.239Z,1.92
2018-03-07T22:54:19.675Z,3.00
2018-03-07T22:56:46.139Z,3.05
2018-03-07T22:59:12.542Z,2.25
2018-03-07T23:01:39.066Z,1.85
2018-03-07T23:04:06.182Z,1.35
2018-03-07T23:06:32.634Z,2.72
2018-03-07T23:08:59.056Z,1.48
2018-03-07T23:11:26.175Z,2.67
2018-03-07T23:13:52.603Z,2.25
2018-03-07T23:16:19.146Z,3.55
2018-03-07T23:18:45.585Z,3.45
2018-03-07T23:21:12.746Z,3.50
2018-03-07T23:23:39.930Z,3.70
2018-03-07T23:26:07.096Z,4.00
2018-03-07T23:28:33.561Z,3.55
2018-03-07T23:30:59.943Z,2.42
2018-03-07T23:33:26.365Z,1.75
2018-03-07T23:35:52.790Z,2.90
2018-03-07T23:38:19.225Z,4.10
2018-03-07T23:40:46.218Z,3.28
2018-03-07T23:43:12.633Z,2.67
2018-03-07T23:45:39.026Z,4.12
2018-03-07T23:48:05.393Z,2.33
2018-03-07T23:50:31.834Z,3.35
2018-03-07T23:52:58.250Z,1.50
2018-03-07T23:55:24.670Z,3.75
2018-03-07T23:57:51.031Z,1.75
